createdAt,value
2023-03-14T00:00:44.556Z,2.72
2023-03-14T00:03:17.727Z,3.00
2023-03-14T00:05:50.950Z,3.30
2023-03-14T00:08:25.945Z,3.10
2023-03-14T00:10:59.882Z,2.62
2023-03-14T00:13:33.109Z,2.50
2023-03-14T00:16:08.335Z,2.87
2023-03-14T00:18:42.462Z,3.33
2023-03-14T00:21:16.019Z,3.00
2023-03-14T00:23:49.208Z,2.40
2023-03-14T00:26:23.657Z,2.45
2023-03-14T00:28:57.128Z,2.77
2023-03-14T00:31:30.456Z,3.35
2023-03-14T00:34:03.792Z,3.10
2023-03-14T00:36:37.806Z,2.25
2023-03-14T00:39:11.986Z,2.55
2023-03-14T00:41:45.221Z,2.75
2023-03-14T00:44:18.500Z,2.08
2023-03-14T00:46:51.722Z,3.50
2023-03-14T00:49:25.323Z,3.12
2023-03-14T00:51:58.546Z,2.10
2023-03-14T00:54:31.762Z,4.00
2023-03-14T00:57:05.095Z,3.05
2023-03-14T00:59:38.798Z,2.62
2023-03-14T01:02:12.004Z,2.40
2023-03-14T01:04:45.153Z,2.95
2023-03-14T01:07:18.820Z,3.00
2023-03-14T01:12:36.146Z,3.70
2023-03-14T01:15:11.082Z,3.70
2023-03-14T01:17:44.961Z,3.50
2023-03-14T01:20:19.357Z,3.62
2023-03-14T01:22:52.317Z,3.62
2023-03-14T01:25:25.377Z,4.15
2023-03-14T01:27:58.671Z,3.37
2023-03-14T01:30:32.225Z,4.15
2023-03-14T01:33:08.624Z,2.77
2023-03-14T01:35:41.709Z,3.22
2023-03-14T01:38:14.951Z,4.17
2023-03-14T01:40:48.174Z,3.50
2023-03-14T01:43:24.736Z,3.67
2023-03-14T01:46:28.524Z,3.62
2023-03-14T01:49:08.684Z,4.60
2023-03-14T01:51:47.364Z,5.05
2023-03-14T01:54:25.506Z,4.97
2023-03-14T01:57:02.653Z,3.95
2023-03-14T01:59:36.853Z,4.00
2023-03-14T02:02:12.656Z,4.30
2023-03-14T02:04:46.321Z,4.87
2023-03-14T02:07:25.409Z,4.35
2023-03-14T02:12:36.140Z,5.22
2023-03-14T02:15:15.115Z,4.37
2023-03-14T02:18:00.056Z,4.47
2023-03-14T02:20:41.311Z,4.47
2023-03-14T02:23:15.545Z,4.03
2023-03-14T02:25:54.052Z,4.53
2023-03-14T02:28:27.682Z,4.30
2023-03-14T02:31:02.502Z,4.75
2023-03-14T02:33:37.726Z,4.12
2023-03-14T02:36:14.457Z,5.20
2023-03-14T02:38:51.681Z,4.60
2023-03-14T02:41:25.188Z,4.87
2023-03-14T02:43:59.898Z,5.03
2023-03-14T02:46:33.640Z,3.95
2023-03-14T02:49:09.022Z,5.17
2023-03-14T02:51:45.664Z,5.25
2023-03-14T02:54:20.954Z,5.20
2023-03-14T02:56:54.356Z,4.67
2023-03-14T02:59:29.498Z,6.03
2023-03-14T03:02:04.093Z,5.83
2023-03-14T03:04:37.444Z,6.83
2023-03-14T03:07:10.742Z,5.45
2023-03-14T03:09:43.673Z,4.80
2023-03-14T03:12:16.965Z,6.30
2023-03-14T03:14:50.393Z,6.50
2023-03-14T03:17:26.521Z,4.85
2023-03-14T03:20:01.566Z,5.62
2023-03-14T03:22:35.159Z,4.45
2023-03-14T03:25:10.618Z,8.28
2023-03-14T03:27:43.915Z,5.08
2023-03-14T03:30:18.714Z,7.03
2023-03-14T03:32:52.360Z,5.25
2023-03-14T03:35:25.391Z,6.15
2023-03-14T03:38:00.096Z,6.10
2023-03-14T03:40:34.018Z,6.25
2023-03-14T03:43:07.198Z,5.50
2023-03-14T03:45:41.818Z,6.95
2023-03-14T03:48:16.434Z,5.65
2023-03-14T03:50:50.276Z,5.60
2023-03-14T03:53:33.099Z,6.42
2023-03-14T03:55:59.713Z,6.08
2023-03-14T03:58:32.909Z,7.12
2023-03-14T04:01:06.260Z,6.87
2023-03-14T04:03:40.295Z,7.35
2023-03-14T04:06:15.290Z,5.90
2023-03-14T04:08:50.072Z,6.37
2023-03-14T04:11:43.184Z,8.03
2023-03-14T04:14:30.180Z,5.05
2023-03-14T04:17:10.727Z,5.60
2023-03-14T04:19:43.958Z,4.78
2023-03-14T04:22:17.165Z,6.03
2023-03-14T04:24:52.193Z,7.28
2023-03-14T04:27:26.511Z,7.72
2023-03-14T04:30:00.550Z,6.20
2023-03-14T04:32:50.543Z,6.22
2023-03-14T04:35:25.715Z,5.72
2023-03-14T04:38:00.578Z,4.97
2023-03-14T04:40:35.224Z,7.45
2023-03-14T04:43:11.250Z,7.90
2023-03-14T04:45:46.483Z,7.35
2023-03-14T04:48:20.341Z,5.67
2023-03-14T04:50:54.174Z,6.20
2023-03-14T04:53:27.468Z,5.58
2023-03-14T04:56:02.252Z,6.80
2023-03-14T04:58:37.026Z,6.45
2023-03-14T05:01:11.264Z,6.05
2023-03-14T05:03:49.011Z,7.70
2023-03-14T05:06:23.850Z,6.55
2023-03-14T05:09:06.203Z,5.17
2023-03-14T05:11:57.026Z,6.28
2023-03-14T05:14:40.806Z,6.60
2023-03-14T05:19:58.158Z,6.20
2023-03-14T05:22:35.645Z,6.62
2023-03-14T05:25:16.047Z,6.53
2023-03-14T05:28:00.029Z,6.45
2023-03-14T05:30:46.868Z,7.20
2023-03-14T05:33:27.266Z,4.78
2023-03-14T05:36:14.918Z,6.67
2023-03-14T05:38:49.487Z,8.98
2023-03-14T05:44:06.214Z,6.28
2023-03-14T05:46:49.522Z,7.00
2023-03-14T05:49:34.986Z,6.00
2023-03-14T05:52:18.388Z,6.20
2023-03-14T05:54:55.645Z,5.05
2023-03-14T05:57:48.537Z,5.20
2023-03-14T06:00:29.404Z,5.55
2023-03-14T06:03:08.317Z,5.40
2023-03-14T06:05:42.585Z,6.42
2023-03-14T06:08:18.033Z,4.33
2023-03-14T06:10:52.404Z,6.05
2023-03-14T06:13:27.436Z,4.08
2023-03-14T06:16:00.820Z,5.30
2023-03-14T06:18:37.729Z,4.50
2023-03-14T06:21:12.964Z,4.92
2023-03-14T06:23:46.282Z,5.65
2023-03-14T06:26:19.834Z,5.83
2023-03-14T06:28:55.798Z,4.95
2023-03-14T06:31:29.169Z,5.75
2023-03-14T06:34:10.275Z,3.92
2023-03-14T06:36:57.474Z,3.98
2023-03-14T06:39:31.583Z,6.65
2023-03-14T06:42:08.028Z,3.83
2023-03-14T06:44:43.402Z,3.80
2023-03-14T06:47:17.446Z,5.15
2023-03-14T06:49:54.668Z,5.20
2023-03-14T06:52:30.275Z,5.05
2023-03-14T06:55:03.823Z,3.95
2023-03-14T06:57:38.645Z,4.33
2023-03-14T07:00:15.821Z,5.42
2023-03-14T07:02:49.728Z,5.37
2023-03-14T07:05:24.805Z,4.62
2023-03-14T07:07:58.509Z,5.10
2023-03-14T07:10:35.716Z,5.70
2023-03-14T07:13:09.246Z,5.12
2023-03-14T07:15:44.438Z,3.85
2023-03-14T07:18:17.897Z,4.85
2023-03-14T07:20:51.692Z,4.83
2023-03-14T07:23:25.634Z,3.72
2023-03-14T07:26:00.041Z,5.05
2023-03-14T07:28:37.658Z,3.58
2023-03-14T07:31:12.852Z,7.10
2023-03-14T07:33:46.897Z,4.30
2023-03-14T07:36:22.302Z,5.47
2023-03-14T07:38:55.731Z,5.00
2023-03-14T07:41:39.955Z,4.15
2023-03-14T07:44:30.659Z,5.00
2023-03-14T07:47:08.109Z,3.62
2023-03-14T07:49:41.890Z,4.60
2023-03-14T07:52:15.398Z,3.42
2023-03-14T07:54:48.705Z,3.60
2023-03-14T07:57:22.154Z,4.47
2023-03-14T07:59:55.438Z,4.47
2023-03-14T08:02:28.927Z,4.35
2023-03-14T08:05:02.374Z,4.17
2023-03-14T08:07:39.036Z,3.05
2023-03-14T08:10:15.780Z,3.60
2023-03-14T08:12:49.206Z,4.05
2023-03-14T08:15:22.865Z,4.60
2023-03-14T08:17:56.642Z,3.60
2023-03-14T08:20:35.594Z,4.03
2023-03-14T08:23:09.005Z,4.30
2023-03-14T08:25:42.651Z,3.50
2023-03-14T08:28:16.126Z,3.42
2023-03-14T08:30:49.646Z,3.85
2023-03-14T08:33:23.084Z,4.78
2023-03-14T08:38:43.753Z,4.78
2023-03-14T08:41:20.007Z,4.20
2023-03-14T08:43:53.248Z,3.70
2023-03-14T08:46:26.561Z,4.65
2023-03-14T08:48:59.778Z,3.47
2023-03-14T08:51:36.153Z,3.92
2023-03-14T08:54:12.104Z,3.10
2023-03-14T08:56:45.258Z,4.33
2023-03-14T08:59:19.383Z,4.42
2023-03-14T09:01:52.868Z,4.40
2023-03-14T09:04:26.164Z,4.70
2023-03-14T09:06:59.969Z,4.37
2023-03-14T09:09:36.591Z,4.78
2023-03-14T09:12:10.249Z,4.62
2023-03-14T09:14:43.477Z,3.08
2023-03-14T09:17:16.820Z,3.25
2023-03-14T09:19:49.971Z,3.67
2023-03-14T09:22:23.511Z,3.87
2023-03-14T09:24:57.786Z,3.42
2023-03-14T09:27:31.060Z,3.50
2023-03-14T09:30:09.803Z,4.12
2023-03-14T09:32:42.930Z,3.83
2023-03-14T09:35:16.162Z,3.55
2023-03-14T09:37:49.689Z,3.27
2023-03-14T09:40:24.886Z,3.22
2023-03-14T09:42:59.948Z,4.05
2023-03-14T09:45:39.202Z,3.33
2023-03-14T09:48:17.277Z,3.17
2023-03-14T09:50:53.904Z,3.52
2023-03-14T09:53:30.585Z,3.35
2023-03-14T09:56:09.539Z,4.35
2023-03-14T09:58:45.185Z,4.05
2023-03-14T10:01:21.616Z,2.27
2023-03-14T10:03:58.241Z,3.30
2023-03-14T10:06:36.855Z,4.70
2023-03-14T10:09:13.765Z,4.15
2023-03-14T10:11:47.695Z,3.92
2023-03-14T10:14:32.674Z,3.05
2023-03-14T10:17:14.695Z,3.80
2023-03-14T10:19:59.332Z,5.10
2023-03-14T10:25:32.358Z,4.15
2023-03-14T10:28:08.178Z,4.22
2023-03-14T10:30:47.135Z,4.17
2023-03-14T10:33:25.656Z,4.25
2023-03-14T10:36:01.383Z,4.85
2023-03-14T10:38:39.579Z,3.90
2023-03-14T10:41:22.770Z,4.17
2023-03-14T10:43:59.018Z,4.58
2023-03-14T10:46:39.339Z,4.10
2023-03-14T10:49:37.113Z,4.12
2023-03-14T10:52:35.739Z,4.70
2023-03-14T10:55:03.926Z,4.92
2023-03-14T10:57:41.541Z,3.20
2023-03-14T11:03:07.492Z,4.20
2023-03-14T11:05:44.636Z,3.80
2023-03-14T11:08:21.720Z,3.15
2023-03-14T11:10:58.549Z,4.77
2023-03-14T11:13:37.869Z,4.50
2023-03-14T11:16:14.783Z,5.08
2023-03-14T11:19:19.240Z,3.55
2023-03-14T11:21:56.820Z,4.28
2023-03-14T11:24:44.714Z,3.87
2023-03-14T11:27:23.245Z,3.40
2023-03-14T11:30:02.881Z,4.42
2023-03-14T11:32:46.531Z,3.77
2023-03-14T11:35:24.998Z,3.62
2023-03-14T11:38:04.351Z,3.40
2023-03-14T11:43:14.890Z,3.52
2023-03-14T11:45:50.695Z,3.20
2023-03-14T11:48:36.486Z,3.33
2023-03-14T11:51:13.633Z,3.37
2023-03-14T11:53:55.820Z,3.85
2023-03-14T11:56:38.140Z,3.42
2023-03-14T11:59:15.458Z,3.90
2023-03-14T12:01:59.363Z,4.65
2023-03-14T12:04:55.308Z,3.52
2023-03-14T12:07:36.455Z,3.83
2023-03-14T12:10:10.910Z,2.90
2023-03-14T12:12:44.722Z,4.40
2023-03-14T12:15:23.965Z,4.35
2023-03-14T12:17:59.335Z,4.10
2023-03-14T12:20:32.909Z,2.90
2023-03-14T12:23:14.478Z,3.27
2023-03-14T12:28:24.183Z,2.77
2023-03-14T12:30:57.444Z,4.22
2023-03-14T12:33:36.150Z,4.35
2023-03-14T12:36:51.813Z,3.52
2023-03-14T12:39:39.295Z,3.80
2023-03-14T12:42:14.973Z,4.08
2023-03-14T12:44:51.111Z,3.80
2023-03-14T12:48:00.166Z,3.08
2023-03-14T12:50:42.734Z,3.35
2023-03-14T12:54:03.984Z,3.47
2023-03-14T12:57:02.792Z,4.10
2023-03-14T12:59:43.701Z,4.45
2023-03-14T13:02:29.800Z,3.25
2023-03-14T13:05:13.777Z,3.27
2023-03-14T13:08:12.330Z,4.03
2023-03-14T13:10:50.133Z,3.35
2023-03-14T13:16:01.446Z,3.47
2023-03-14T13:21:27.628Z,3.67
2023-03-14T13:24:06.110Z,3.70
2023-03-14T13:26:43.522Z,3.65
2023-03-14T13:29:21.973Z,3.12
2023-03-14T13:31:58.585Z,4.00
2023-03-14T13:34:38.168Z,3.30
2023-03-14T13:37:21.157Z,3.45
2023-03-14T13:39:56.683Z,2.92
2023-03-14T13:42:32.017Z,3.27
2023-03-14T13:45:13.237Z,3.80
2023-03-14T13:47:49.399Z,3.33
2023-03-14T13:50:22.840Z,3.45
2023-03-14T13:53:00.272Z,3.42
2023-03-14T13:58:24.662Z,3.17
2023-03-14T14:01:04.761Z,3.75
2023-03-14T14:03:42.866Z,3.52
2023-03-14T14:06:28.928Z,3.65
2023-03-14T14:09:14.527Z,3.47
2023-03-14T14:12:07.410Z,4.00
2023-03-14T14:14:28.887Z,2.95
2023-03-14T14:17:05.468Z,3.40
2023-03-14T14:19:43.729Z,3.27
2023-03-14T14:22:17.407Z,3.22
2023-03-14T14:24:53.048Z,3.15
2023-03-14T14:27:33.201Z,3.50
2023-03-14T14:30:28.348Z,2.87
2023-03-14T14:33:21.283Z,2.60
2023-03-14T14:35:59.580Z,3.55
2023-03-14T14:38:35.934Z,3.33
2023-03-14T14:41:10.524Z,3.87
2023-03-14T14:43:47.026Z,3.12
2023-03-14T14:49:17.579Z,3.50
2023-03-14T14:51:54.010Z,3.87
2023-03-14T14:54:42.418Z,2.72
2023-03-14T14:57:23.063Z,3.60
2023-03-14T15:00:01.484Z,4.47
2023-03-14T15:02:46.687Z,4.25
2023-03-14T15:05:23.681Z,4.17
2023-03-14T15:07:58.805Z,3.92
2023-03-14T15:10:33.817Z,3.40
2023-03-14T15:13:08.422Z,4.37
2023-03-14T15:15:41.873Z,3.25
2023-03-14T15:18:20.617Z,3.10
2023-03-14T15:20:55.420Z,3.83
2023-03-14T15:23:28.549Z,4.08
2023-03-14T15:26:20.328Z,3.52
2023-03-14T15:28:59.008Z,3.52
2023-03-14T15:31:32.187Z,3.30
2023-03-14T15:34:05.805Z,4.58
2023-03-14T15:36:45.598Z,3.67
2023-03-14T15:39:31.691Z,3.80
2023-03-14T15:42:24.449Z,2.77
2023-03-14T15:44:59.347Z,3.98
2023-03-14T15:47:34.673Z,4.72
2023-03-14T15:50:10.855Z,3.20
2023-03-14T15:52:52.131Z,3.35
2023-03-14T15:58:28.493Z,3.58
2023-03-14T16:01:12.694Z,3.05
2023-03-14T16:03:50.027Z,3.12
2023-03-14T16:06:26.669Z,3.10
2023-03-14T16:09:01.398Z,4.37
2023-03-14T16:11:36.174Z,4.03
2023-03-14T16:14:09.702Z,4.12
2023-03-14T16:16:43.251Z,3.55
2023-03-14T16:19:16.444Z,3.85
2023-03-14T16:21:53.536Z,3.60
2023-03-14T16:24:31.514Z,3.02
2023-03-14T16:27:08.454Z,4.08
2023-03-14T16:29:50.161Z,3.10
2023-03-14T16:32:26.214Z,3.42
2023-03-14T16:35:01.448Z,3.22
2023-03-14T16:37:34.952Z,3.30
2023-03-14T16:40:13.035Z,4.22
2023-03-14T16:43:14.582Z,3.27
2023-03-14T16:45:24.836Z,4.00
2023-03-14T16:47:58.214Z,4.08
2023-03-14T16:50:37.913Z,3.42
2023-03-14T16:53:16.592Z,3.77
2023-03-14T16:55:54.434Z,4.08
2023-03-14T16:58:27.989Z,4.60
2023-03-14T17:01:03.652Z,3.90
2023-03-14T17:03:37.102Z,2.77
2023-03-14T17:06:13.515Z,2.77
2023-03-14T17:09:04.205Z,3.60
2023-03-14T17:17:55.568Z,3.90
2023-03-14T17:20:30.891Z,3.55
2023-03-14T17:23:04.189Z,3.72
2023-03-14T17:25:40.422Z,3.55
2023-03-14T17:31:04.432Z,3.37
2023-03-14T17:33:47.795Z,2.62
2023-03-14T17:36:24.897Z,2.95
2023-03-14T17:38:58.638Z,2.92
2023-03-14T17:41:31.883Z,3.42
2023-03-14T17:44:06.788Z,3.30
2023-03-14T17:46:42.391Z,3.67
2023-03-14T17:49:15.545Z,4.00
2023-03-14T17:51:54.394Z,3.85
2023-03-14T17:54:27.785Z,3.85
2023-03-14T17:57:00.965Z,3.10
2023-03-14T17:59:34.532Z,3.02
2023-03-14T18:02:08.530Z,3.05
2023-03-14T18:04:41.826Z,3.45
2023-03-14T18:07:15.282Z,3.80
2023-03-14T18:09:52.124Z,3.55
2023-03-14T18:12:28.842Z,2.60
2023-03-14T18:15:06.405Z,2.85
2023-03-14T18:17:43.947Z,3.02
2023-03-14T18:42:26.197Z,2.98
2023-03-14T18:44:59.475Z,3.37
2023-03-14T18:47:36.223Z,2.67
2023-03-14T18:50:13.698Z,2.85
2023-03-14T18:52:48.389Z,2.30
2023-03-14T18:55:22.803Z,3.72
2023-03-14T18:57:55.885Z,2.45
2023-03-14T19:00:30.800Z,3.00
2023-03-14T19:03:04.424Z,2.98
2023-03-14T19:05:39.515Z,2.65
2023-03-14T19:08:32.999Z,2.58
2023-03-14T19:11:08.097Z,2.30
2023-03-14T19:13:42.409Z,2.72
2023-03-14T19:16:17.108Z,2.75
2023-03-14T19:18:54.463Z,3.05
2023-03-14T19:21:32.744Z,2.02
2023-03-14T19:24:07.304Z,2.90
2023-03-14T19:26:40.559Z,1.80
2023-03-14T19:29:13.868Z,2.00
2023-03-14T19:31:47.305Z,2.22
2023-03-14T19:34:21.338Z,2.35
2023-03-14T19:36:55.014Z,1.90
2023-03-14T19:39:28.437Z,2.00
2023-03-14T19:42:03.275Z,2.40
2023-03-14T19:44:36.482Z,1.92
2023-03-14T19:47:09.611Z,1.87
2023-03-14T19:49:42.949Z,1.87
2023-03-14T19:52:18.341Z,1.98
2023-03-14T19:54:54.935Z,2.12
2023-03-14T19:57:28.700Z,2.42
2023-03-14T20:00:05.153Z,2.77
2023-03-14T20:05:19.776Z,1.77
2023-03-14T20:07:54.301Z,2.42
2023-03-14T20:10:27.593Z,1.72
2023-03-14T20:15:49.155Z,2.00
2023-03-14T20:18:24.132Z,1.52
2023-03-14T20:20:57.359Z,1.77
2023-03-14T20:23:30.930Z,1.87
2023-03-14T20:26:04.776Z,2.15
2023-03-14T20:28:42.053Z,1.47
2023-03-14T20:31:16.211Z,1.65
2023-03-14T20:33:51.425Z,1.27
2023-03-14T20:36:25.312Z,1.65
2023-03-14T20:38:58.544Z,2.10
2023-03-14T20:41:31.876Z,1.50
2023-03-14T20:44:05.259Z,1.70
2023-03-14T20:46:38.526Z,2.30
2023-03-14T20:49:11.983Z,1.70
2023-03-14T20:51:57.682Z,1.90
2023-03-14T20:54:39.624Z,1.90
2023-03-14T20:57:15.591Z,2.00
2023-03-14T20:59:48.799Z,2.00
2023-03-14T21:02:22.067Z,1.87
2023-03-14T21:04:56.938Z,1.80
2023-03-14T21:07:34.433Z,2.02
2023-03-14T21:10:11.336Z,1.57
2023-03-14T21:12:44.629Z,1.60
2023-03-14T21:15:18.296Z,2.02
2023-03-14T21:17:53.776Z,2.15
2023-03-14T21:20:26.982Z,1.42
2023-03-14T21:23:00.673Z,1.82
2023-03-14T21:25:34.752Z,2.45
2023-03-14T21:28:08.089Z,1.47
2023-03-14T21:30:41.404Z,1.77
2023-03-14T21:33:15.759Z,1.42
2023-03-14T21:35:49.685Z,1.40
2023-03-14T21:38:23.166Z,2.40
2023-03-14T21:41:00.016Z,2.00
2023-03-14T21:43:33.833Z,1.55
2023-03-14T21:46:07.295Z,1.75
2023-03-14T21:48:40.591Z,1.40
2023-03-14T21:51:13.958Z,1.55
2023-03-14T21:53:47.103Z,2.22
2023-03-14T21:56:20.445Z,1.98
2023-03-14T21:58:55.762Z,1.98
2023-03-14T22:01:29.058Z,1.60
2023-03-14T22:04:02.565Z,1.60
2023-03-14T22:06:35.862Z,1.47
2023-03-14T22:09:09.152Z,1.92
2023-03-14T22:11:45.045Z,2.42
2023-03-14T22:14:18.387Z,1.62
2023-03-14T22:16:51.770Z,1.98
2023-03-14T22:19:25.040Z,1.67
2023-03-14T22:21:58.396Z,2.10
2023-03-14T22:24:31.675Z,1.15
2023-03-14T22:27:04.969Z,1.72
2023-03-14T22:29:38.484Z,1.75
2023-03-14T22:32:13.043Z,1.02
2023-03-14T22:34:46.743Z,1.82
2023-03-14T22:37:20.508Z,2.22
2023-03-14T22:39:54.049Z,2.80
2023-03-14T22:42:27.604Z,2.30
2023-03-14T22:45:01.112Z,2.20
2023-03-14T22:47:34.696Z,1.90
2023-03-14T22:50:10.116Z,1.72
2023-03-14T22:52:43.556Z,1.35
2023-03-14T22:55:17.158Z,1.40
2023-03-14T22:57:53.750Z,2.33
2023-03-14T23:00:28.096Z,1.92
2023-03-14T23:03:01.925Z,1.80
2023-03-14T23:05:35.359Z,1.95
2023-03-14T23:08:09.031Z,2.42
2023-03-14T23:10:43.360Z,1.50
2023-03-14T23:13:16.789Z,2.37
2023-03-14T23:15:50.480Z,2.08
2023-03-14T23:18:25.600Z,1.85
2023-03-14T23:21:10.001Z,1.22
2023-03-14T23:23:46.770Z,2.08
2023-03-14T23:26:23.449Z,2.37
2023-03-14T23:28:57.602Z,1.77
2023-03-14T23:31:32.514Z,2.00
2023-03-14T23:34:05.994Z,2.08
2023-03-14T23:36:39.610Z,2.27
2023-03-14T23:39:13.790Z,2.15
2023-03-14T23:41:47.353Z,1.95
2023-03-14T23:44:20.769Z,2.33
2023-03-14T23:46:54.241Z,2.67
2023-03-14T23:49:27.467Z,1.82
2023-03-14T23:52:00.896Z,2.37
2023-03-14T23:54:34.277Z,2.02
2023-03-14T23:57:10.374Z,2.45
2023-03-14T23:59:43.877Z,1.47
